This is the latest recevied weather packets stored in our database for station/object K1FSY-9. If no packets are shown the sender has not sent any weather packets the latest 10 day(s).
| Time | Temp. | Humidity | Pressure | Rain* | Wind** | Luminosity | Snow |
|---|---|---|---|---|---|---|---|
| 1777345507 | 8.89° C | 68% | 1022.6 hPa | 0 mm | - | - | - |
| 1777343706 | 9.44° C | 67% | 1023 hPa | 0 mm | - | - | - |
| 1777341903 | 10° C | 64% | 1022.6 hPa | 0 mm | - | - | - |
| 1777338299 | 12.22° C | 58% | 1022.3 hPa | 0 mm | - | - | - |
| 1777336496 | 13.33° C | 54% | 1021.6 hPa | 0 mm | - | - | - |
| 1777334692 | 15° C | 49% | 1021.3 hPa | 0 mm | - | - | - |
| 1777332892 | 16.11° C | 46% | 1020.3 hPa | 0 mm | - | - | - |
| 1777331091 | 18.33° C | 42% | 1019.6 hPa | 0 mm | - | - | - |
| 1777329289 | 19.44° C | 38% | 1019.3 hPa | 0 mm | - | - | - |
| 1777327488 | 21.11° C | 32% | 1018.9 hPa | 0 mm | - | - | - |
| 1777325688 | 21.67° C | 32% | 1019.3 hPa | 0 mm | - | - | - |
| 1777323888 | 22.78° C | 30% | 1018.9 hPa | 0 mm | - | - | - |
| 1777318480 | 22.22° C | 33% | 1018.9 hPa | 0 mm | - | - | - |
| 1777314877 | 21.11° C | 37% | 1019.6 hPa | 0 mm | - | - | - |
| 1777313081 | 20.56° C | 37% | 1019.9 hPa | 0 mm | - | - | - |
| 1777311271 | 20° C | 40% | 1019.9 hPa | 0 mm | - | - | - |
| 1777309467 | 20° C | 40% | 1020.3 hPa | 0 mm | - | - | - |
| 1777305861 | 18.89° C | 43% | 1021.3 hPa | 0 mm | - | - | - |
| 1777298654 | 15° C | 48% | 1022 hPa | 0 mm | - | - | - |
| 1777296855 | 15° C | 50% | 1021.6 hPa | 0 mm | - | - | - |
| 1777295050 | 17.22° C | 44% | 1021.3 hPa | 0 mm | - | - | - |
| 1777293246 | 15.56° C | 51% | 1021.3 hPa | 0 mm | - | - | - |
| 1777291442 | 8.33° C | 75% | 1022.3 hPa | 0 mm | - | - | - |
| 1777289636 | 5.56° C | 88% | 1022.3 hPa | 0 mm | - | - | - |
| 1777287835 | 4.44° C | 88% | 1022 hPa | 0 mm | - | - | - |
* Rain latest 24 hours (hover to see other rain measurements)
** Current wind speed in m/s (hover to see current wind gust speed)